sensor_id;sensor_type;location;lat;lon;timestamp;temperature;humidity
17887;DHT22;9069;52.044;7.472;2023-08-21T00:01:31;23.70;72.90
17887;DHT22;9069;52.044;7.472;2023-08-21T00:03:58;23.70;73.00
17887;DHT22;9069;52.044;7.472;2023-08-21T00:06:25;23.60;73.20
17887;DHT22;9069;52.044;7.472;2023-08-21T00:08:52;23.60;73.30
17887;DHT22;9069;52.044;7.472;2023-08-21T00:11:18;23.60;73.70
17887;DHT22;9069;52.044;7.472;2023-08-21T00:13:45;23.60;74.10
17887;DHT22;9069;52.044;7.472;2023-08-21T00:16:14;23.60;74.40
17887;DHT22;9069;52.044;7.472;2023-08-21T00:18:41;23.50;74.50
17887;DHT22;9069;52.044;7.472;2023-08-21T00:21:08;23.60;74.80
17887;DHT22;9069;52.044;7.472;2023-08-21T00:23:35;23.50;74.80
17887;DHT22;9069;52.044;7.472;2023-08-21T00:26:02;23.50;75.20
17887;DHT22;9069;52.044;7.472;2023-08-21T00:28:29;23.50;74.70
17887;DHT22;9069;52.044;7.472;2023-08-21T00:31:02;23.70;75.00
17887;DHT22;9069;52.044;7.472;2023-08-21T00:33:31;23.60;74.70
17887;DHT22;9069;52.044;7.472;2023-08-21T00:35:58;23.50;74.70
17887;DHT22;9069;52.044;7.472;2023-08-21T00:38:25;23.50;74.80
17887;DHT22;9069;52.044;7.472;2023-08-21T00:40:52;23.50;74.60
17887;DHT22;9069;52.044;7.472;2023-08-21T00:43:20;23.50;74.90
17887;DHT22;9069;52.044;7.472;2023-08-21T00:45:49;23.50;74.90
17887;DHT22;9069;52.044;7.472;2023-08-21T00:48:17;23.50;74.70
17887;DHT22;9069;52.044;7.472;2023-08-21T00:50:44;23.60;74.60
17887;DHT22;9069;52.044;7.472;2023-08-21T00:53:11;23.50;74.30
17887;DHT22;9069;52.044;7.472;2023-08-21T00:55:38;23.50;74.20
17887;DHT22;9069;52.044;7.472;2023-08-21T00:58:09;23.50;73.60
17887;DHT22;9069;52.044;7.472;2023-08-21T01:00:37;23.50;74.40
17887;DHT22;9069;52.044;7.472;2023-08-21T01:03:06;23.50;74.30
17887;DHT22;9069;52.044;7.472;2023-08-21T01:05:34;23.50;74.70
17887;DHT22;9069;52.044;7.472;2023-08-21T01:08:16;23.50;74.80
17887;DHT22;9069;52.044;7.472;2023-08-21T01:10:54;23.50;75.60
17887;DHT22;9069;52.044;7.472;2023-08-21T01:13:47;23.50;75.30
17887;DHT22;9069;52.044;7.472;2023-08-21T01:16:18;23.50;76.10
17887;DHT22;9069;52.044;7.472;2023-08-21T01:18:48;23.50;75.50
17887;DHT22;9069;52.044;7.472;2023-08-21T01:21:16;23.40;75.90
17887;DHT22;9069;52.044;7.472;2023-08-21T01:23:43;23.50;75.80
17887;DHT22;9069;52.044;7.472;2023-08-21T01:26:10;23.50;76.00
17887;DHT22;9069;52.044;7.472;2023-08-21T01:28:37;23.40;75.60
17887;DHT22;9069;52.044;7.472;2023-08-21T01:31:28;23.40;75.60
17887;DHT22;9069;52.044;7.472;2023-08-21T01:33:59;23.40;75.60
17887;DHT22;9069;52.044;7.472;2023-08-21T01:36:28;23.40;75.50
17887;DHT22;9069;52.044;7.472;2023-08-21T01:38:55;23.40;75.20
17887;DHT22;9069;52.044;7.472;2023-08-21T01:41:23;23.40;75.10
17887;DHT22;9069;52.044;7.472;2023-08-21T01:43:51;23.40;74.30
17887;DHT22;9069;52.044;7.472;2023-08-21T01:46:18;23.30;75.00
17887;DHT22;9069;52.044;7.472;2023-08-21T01:48:44;23.30;75.30
17887;DHT22;9069;52.044;7.472;2023-08-21T01:51:11;23.30;75.70
17887;DHT22;9069;52.044;7.472;2023-08-21T01:53:38;23.30;75.80
17887;DHT22;9069;52.044;7.472;2023-08-21T01:56:05;23.30;75.50
17887;DHT22;9069;52.044;7.472;2023-08-21T01:58:33;23.20;75.70
17887;DHT22;9069;52.044;7.472;2023-08-21T02:00:59;23.30;76.00
17887;DHT22;9069;52.044;7.472;2023-08-21T02:03:27;23.20;75.60
17887;DHT22;9069;52.044;7.472;2023-08-21T02:05:57;23.20;75.40
17887;DHT22;9069;52.044;7.472;2023-08-21T02:08:32;23.20;75.20
17887;DHT22;9069;52.044;7.472;2023-08-21T02:10:59;23.20;75.30
17887;DHT22;9069;52.044;7.472;2023-08-21T02:13:26;23.20;75.50
17887;DHT22;9069;52.044;7.472;2023-08-21T02:15:53;23.10;76.10
17887;DHT22;9069;52.044;7.472;2023-08-21T02:18:20;23.10;75.90
17887;DHT22;9069;52.044;7.472;2023-08-21T02:20:47;23.10;76.30
17887;DHT22;9069;52.044;7.472;2023-08-21T02:23:16;23.00;76.50
17887;DHT22;9069;52.044;7.472;2023-08-21T02:25:42;23.00;77.00
17887;DHT22;9069;52.044;7.472;2023-08-21T02:28:10;23.00;76.70
17887;DHT22;9069;52.044;7.472;2023-08-21T02:30:40;23.00;77.40
17887;DHT22;9069;52.044;7.472;2023-08-21T02:33:07;23.00;77.90
17887;DHT22;9069;52.044;7.472;2023-08-21T02:35:33;23.00;77.90
17887;DHT22;9069;52.044;7.472;2023-08-21T02:38:04;22.90;78.10
17887;DHT22;9069;52.044;7.472;2023-08-21T02:40:35;23.00;78.90
17887;DHT22;9069;52.044;7.472;2023-08-21T02:43:02;22.90;78.80
17887;DHT22;9069;52.044;7.472;2023-08-21T02:45:29;22.90;79.00
17887;DHT22;9069;52.044;7.472;2023-08-21T02:47:57;22.90;79.40
17887;DHT22;9069;52.044;7.472;2023-08-21T02:50:23;22.80;79.70
17887;DHT22;9069;52.044;7.472;2023-08-21T02:52:50;22.80;79.40
17887;DHT22;9069;52.044;7.472;2023-08-21T02:55:17;22.80;79.80
17887;DHT22;9069;52.044;7.472;2023-08-21T02:57:44;22.80;80.10
17887;DHT22;9069;52.044;7.472;2023-08-21T03:00:11;22.80;80.30
17887;DHT22;9069;52.044;7.472;2023-08-21T03:02:39;22.80;80.60
17887;DHT22;9069;52.044;7.472;2023-08-21T03:05:11;22.80;80.70
17887;DHT22;9069;52.044;7.472;2023-08-21T03:07:38;22.80;80.90
17887;DHT22;9069;52.044;7.472;2023-08-21T03:10:06;22.80;81.10
17887;DHT22;9069;52.044;7.472;2023-08-21T03:12:34;22.80;81.00
17887;DHT22;9069;52.044;7.472;2023-08-21T03:15:02;22.80;81.50
17887;DHT22;9069;52.044;7.472;2023-08-21T03:17:29;22.80;81.60
17887;DHT22;9069;52.044;7.472;2023-08-21T03:19:56;22.80;81.70
17887;DHT22;9069;52.044;7.472;2023-08-21T03:22:24;22.80;81.90
17887;DHT22;9069;52.044;7.472;2023-08-21T03:24:51;22.80;81.90
17887;DHT22;9069;52.044;7.472;2023-08-21T03:27:18;22.80;81.90
17887;DHT22;9069;52.044;7.472;2023-08-21T03:29:45;22.80;82.00
17887;DHT22;9069;52.044;7.472;2023-08-21T03:32:18;22.80;81.60
17887;DHT22;9069;52.044;7.472;2023-08-21T03:34:46;22.80;82.40
17887;DHT22;9069;52.044;7.472;2023-08-21T03:37:12;22.80;82.30
17887;DHT22;9069;52.044;7.472;2023-08-21T03:39:39;22.70;82.30
17887;DHT22;9069;52.044;7.472;2023-08-21T03:42:09;22.70;81.70
17887;DHT22;9069;52.044;7.472;2023-08-21T03:44:38;22.70;82.60
17887;DHT22;9069;52.044;7.472;2023-08-21T03:47:05;22.70;82.90
17887;DHT22;9069;52.044;7.472;2023-08-21T03:49:36;22.70;82.80
17887;DHT22;9069;52.044;7.472;2023-08-21T03:52:03;22.60;82.20
17887;DHT22;9069;52.044;7.472;2023-08-21T03:54:30;22.60;83.00
17887;DHT22;9069;52.044;7.472;2023-08-21T03:56:56;22.60;83.20
17887;DHT22;9069;52.044;7.472;2023-08-21T03:59:23;22.60;83.30
17887;DHT22;9069;52.044;7.472;2023-08-21T04:01:53;22.60;83.50
17887;DHT22;9069;52.044;7.472;2023-08-21T04:04:21;22.50;83.60
17887;DHT22;9069;52.044;7.472;2023-08-21T04:06:47;22.50;83.70
17887;DHT22;9069;52.044;7.472;2023-08-21T04:09:15;22.50;83.90
17887;DHT22;9069;52.044;7.472;2023-08-21T04:11:42;22.50;84.00
17887;DHT22;9069;52.044;7.472;2023-08-21T04:14:08;22.50;83.60
17887;DHT22;9069;52.044;7.472;2023-08-21T04:16:35;22.40;83.40
17887;DHT22;9069;52.044;7.472;2023-08-21T04:19:02;22.40;84.10
17887;DHT22;9069;52.044;7.472;2023-08-21T04:21:29;22.40;83.20
17887;DHT22;9069;52.044;7.472;2023-08-21T04:23:56;22.40;83.40
17887;DHT22;9069;52.044;7.472;2023-08-21T04:26:22;22.40;83.50
17887;DHT22;9069;52.044;7.472;2023-08-21T04:28:49;22.40;83.30
17887;DHT22;9069;52.044;7.472;2023-08-21T04:31:16;22.40;82.80
17887;DHT22;9069;52.044;7.472;2023-08-21T04:33:46;22.30;82.70
17887;DHT22;9069;52.044;7.472;2023-08-21T04:36:17;22.30;82.70
17887;DHT22;9069;52.044;7.472;2023-08-21T04:38:47;22.30;82.50
17887;DHT22;9069;52.044;7.472;2023-08-21T04:41:14;22.30;82.50
17887;DHT22;9069;52.044;7.472;2023-08-21T04:43:44;22.30;82.50
17887;DHT22;9069;52.044;7.472;2023-08-21T04:46:11;22.30;82.30
17887;DHT22;9069;52.044;7.472;2023-08-21T04:48:40;22.30;82.60
17887;DHT22;9069;52.044;7.472;2023-08-21T04:51:07;22.30;82.60
17887;DHT22;9069;52.044;7.472;2023-08-21T04:53:35;22.30;82.50
17887;DHT22;9069;52.044;7.472;2023-08-21T04:56:04;22.30;82.70
17887;DHT22;9069;52.044;7.472;2023-08-21T04:58:33;22.30;82.70
17887;DHT22;9069;52.044;7.472;2023-08-21T05:00:59;22.20;82.70
17887;DHT22;9069;52.044;7.472;2023-08-21T05:03:27;22.30;82.90
17887;DHT22;9069;52.044;7.472;2023-08-21T05:05:55;22.20;83.10
17887;DHT22;9069;52.044;7.472;2023-08-21T05:08:24;22.30;83.50
17887;DHT22;9069;52.044;7.472;2023-08-21T05:10:58;22.30;83.60
17887;DHT22;9069;52.044;7.472;2023-08-21T05:13:27;22.20;84.00
17887;DHT22;9069;52.044;7.472;2023-08-21T05:15:58;22.30;83.90
17887;DHT22;9069;52.044;7.472;2023-08-21T05:18:29;22.30;83.90
17887;DHT22;9069;52.044;7.472;2023-08-21T05:20:56;22.30;84.10
17887;DHT22;9069;52.044;7.472;2023-08-21T05:23:23;22.40;84.40
17887;DHT22;9069;52.044;7.472;2023-08-21T05:25:53;22.40;84.70
17887;DHT22;9069;52.044;7.472;2023-08-21T05:28:20;22.40;85.00
17887;DHT22;9069;52.044;7.472;2023-08-21T05:30:47;22.50;85.40
17887;DHT22;9069;52.044;7.472;2023-08-21T05:33:17;22.50;85.50
17887;DHT22;9069;52.044;7.472;2023-08-21T05:35:45;22.50;85.90
17887;DHT22;9069;52.044;7.472;2023-08-21T05:38:11;22.60;85.70
17887;DHT22;9069;52.044;7.472;2023-08-21T05:40:40;22.60;86.50
17887;DHT22;9069;52.044;7.472;2023-08-21T05:43:09;22.60;86.10
17887;DHT22;9069;52.044;7.472;2023-08-21T05:45:39;22.70;86.10
17887;DHT22;9069;52.044;7.472;2023-08-21T05:48:06;22.70;86.30
17887;DHT22;9069;52.044;7.472;2023-08-21T05:50:33;22.70;86.50
17887;DHT22;9069;52.044;7.472;2023-08-21T05:53:00;22.80;86.60
17887;DHT22;9069;52.044;7.472;2023-08-21T05:55:28;22.80;86.30
17887;DHT22;9069;52.044;7.472;2023-08-21T05:57:55;22.80;86.60
17887;DHT22;9069;52.044;7.472;2023-08-21T06:00:22;22.80;87.00
17887;DHT22;9069;52.044;7.472;2023-08-21T06:02:48;22.90;85.80
17887;DHT22;9069;52.044;7.472;2023-08-21T06:05:35;22.90;86.30
17887;DHT22;9069;52.044;7.472;2023-08-21T06:08:02;23.00;86.00
17887;DHT22;9069;52.044;7.472;2023-08-21T06:10:31;23.00;85.50
17887;DHT22;9069;52.044;7.472;2023-08-21T06:12:58;23.10;84.20
17887;DHT22;9069;52.044;7.472;2023-08-21T06:15:25;23.10;84.60
17887;DHT22;9069;52.044;7.472;2023-08-21T06:17:52;23.10;84.50
17887;DHT22;9069;52.044;7.472;2023-08-21T06:20:18;23.20;84.60
17887;DHT22;9069;52.044;7.472;2023-08-21T06:22:46;23.20;85.00
17887;DHT22;9069;52.044;7.472;2023-08-21T06:25:13;23.30;85.40
17887;DHT22;9069;52.044;7.472;2023-08-21T06:27:40;23.30;85.50
17887;DHT22;9069;52.044;7.472;2023-08-21T06:30:24;23.40;85.40
17887;DHT22;9069;52.044;7.472;2023-08-21T06:32:51;23.50;85.80
17887;DHT22;9069;52.044;7.472;2023-08-21T06:35:18;23.50;86.00
17887;DHT22;9069;52.044;7.472;2023-08-21T06:37:45;23.60;85.90
17887;DHT22;9069;52.044;7.472;2023-08-21T06:40:11;23.70;86.40
17887;DHT22;9069;52.044;7.472;2023-08-21T06:42:38;23.70;86.30
17887;DHT22;9069;52.044;7.472;2023-08-21T06:45:06;23.90;86.50
17887;DHT22;9069;52.044;7.472;2023-08-21T06:47:34;24.00;86.80
17887;DHT22;9069;52.044;7.472;2023-08-21T06:50:02;24.20;87.10
17887;DHT22;9069;52.044;7.472;2023-08-21T06:52:28;24.40;87.00
17887;DHT22;9069;52.044;7.472;2023-08-21T06:54:55;24.70;86.70
17887;DHT22;9069;52.044;7.472;2023-08-21T06:57:22;24.90;86.60
17887;DHT22;9069;52.044;7.472;2023-08-21T06:59:49;25.10;85.70
17887;DHT22;9069;52.044;7.472;2023-08-21T07:02:16;25.60;83.90
17887;DHT22;9069;52.044;7.472;2023-08-21T07:04:43;25.60;84.70
17887;DHT22;9069;52.044;7.472;2023-08-21T07:07:10;25.90;84.10
17887;DHT22;9069;52.044;7.472;2023-08-21T07:09:36;26.20;83.90
17887;DHT22;9069;52.044;7.472;2023-08-21T07:12:03;26.60;81.00
17887;DHT22;9069;52.044;7.472;2023-08-21T07:14:30;26.60;81.20
17887;DHT22;9069;52.044;7.472;2023-08-21T07:16:57;26.90;80.10
17887;DHT22;9069;52.044;7.472;2023-08-21T07:19:24;27.20;79.00
17887;DHT22;9069;52.044;7.472;2023-08-21T07:21:51;27.50;78.30
17887;DHT22;9069;52.044;7.472;2023-08-21T07:24:17;27.60;77.20
17887;DHT22;9069;52.044;7.472;2023-08-21T07:26:44;27.90;76.90
17887;DHT22;9069;52.044;7.472;2023-08-21T07:29:11;28.10;76.40
17887;DHT22;9069;52.044;7.472;2023-08-21T07:31:38;28.30;75.50
17887;DHT22;9069;52.044;7.472;2023-08-21T07:34:04;28.50;74.30
17887;DHT22;9069;52.044;7.472;2023-08-21T07:36:32;28.80;72.90
17887;DHT22;9069;52.044;7.472;2023-08-21T07:38:58;28.90;71.40
17887;DHT22;9069;52.044;7.472;2023-08-21T07:41:26;29.00;70.60
17887;DHT22;9069;52.044;7.472;2023-08-21T07:43:53;29.10;69.80
17887;DHT22;9069;52.044;7.472;2023-08-21T07:46:20;29.10;69.00
17887;DHT22;9069;52.044;7.472;2023-08-21T07:48:47;29.10;68.10
17887;DHT22;9069;52.044;7.472;2023-08-21T07:51:14;29.10;67.90
17887;DHT22;9069;52.044;7.472;2023-08-21T07:53:40;29.00;67.60
17887;DHT22;9069;52.044;7.472;2023-08-21T07:56:07;28.90;67.60
17887;DHT22;9069;52.044;7.472;2023-08-21T07:58:34;28.80;68.30
17887;DHT22;9069;52.044;7.472;2023-08-21T08:01:02;28.70;67.50
17887;DHT22;9069;52.044;7.472;2023-08-21T08:03:31;28.60;68.20
17887;DHT22;9069;52.044;7.472;2023-08-21T08:05:58;28.50;67.40
17887;DHT22;9069;52.044;7.472;2023-08-21T08:08:25;28.40;68.00
17887;DHT22;9069;52.044;7.472;2023-08-21T08:10:52;28.30;68.60
17887;DHT22;9069;52.044;7.472;2023-08-21T08:13:19;28.40;69.20
17887;DHT22;9069;52.044;7.472;2023-08-21T08:15:45;28.40;69.40
17887;DHT22;9069;52.044;7.472;2023-08-21T08:18:13;28.70;69.80
17887;DHT22;9069;52.044;7.472;2023-08-21T08:20:40;28.70;70.40
17887;DHT22;9069;52.044;7.472;2023-08-21T08:23:07;28.90;69.80
17887;DHT22;9069;52.044;7.472;2023-08-21T08:25:35;29.10;69.20
17887;DHT22;9069;52.044;7.472;2023-08-21T08:28:01;29.40;69.10
17887;DHT22;9069;52.044;7.472;2023-08-21T08:30:28;29.60;68.20
17887;DHT22;9069;52.044;7.472;2023-08-21T08:32:55;29.80;68.00
17887;DHT22;9069;52.044;7.472;2023-08-21T08:35:22;30.10;68.10
17887;DHT22;9069;52.044;7.472;2023-08-21T08:37:49;30.30;66.60
17887;DHT22;9069;52.044;7.472;2023-08-21T08:40:16;30.60;65.80
17887;DHT22;9069;52.044;7.472;2023-08-21T08:42:42;30.70;64.70
17887;DHT22;9069;52.044;7.472;2023-08-21T08:45:13;30.90;64.10
17887;DHT22;9069;52.044;7.472;2023-08-21T08:47:40;30.90;61.90
17887;DHT22;9069;52.044;7.472;2023-08-21T08:50:08;31.00;62.00
17887;DHT22;9069;52.044;7.472;2023-08-21T08:52:37;30.90;61.60
17887;DHT22;9069;52.044;7.472;2023-08-21T08:55:05;30.90;60.80
17887;DHT22;9069;52.044;7.472;2023-08-21T08:57:36;30.80;61.20
17887;DHT22;9069;52.044;7.472;2023-08-21T09:00:04;30.70;61.00
17887;DHT22;9069;52.044;7.472;2023-08-21T09:02:31;30.60;61.00
17887;DHT22;9069;52.044;7.472;2023-08-21T09:04:58;30.50;60.60
17887;DHT22;9069;52.044;7.472;2023-08-21T09:07:25;30.40;60.80
17887;DHT22;9069;52.044;7.472;2023-08-21T09:09:52;30.20;61.00
17887;DHT22;9069;52.044;7.472;2023-08-21T09:12:19;30.10;61.20
17887;DHT22;9069;52.044;7.472;2023-08-21T09:14:47;30.00;61.40
17887;DHT22;9069;52.044;7.472;2023-08-21T09:17:14;29.80;61.40
17887;DHT22;9069;52.044;7.472;2023-08-21T09:19:41;29.70;61.60
17887;DHT22;9069;52.044;7.472;2023-08-21T09:22:16;29.60;61.40
17887;DHT22;9069;52.044;7.472;2023-08-21T09:25:04;29.60;61.20
17887;DHT22;9069;52.044;7.472;2023-08-21T09:27:40;29.40;61.40
17887;DHT22;9069;52.044;7.472;2023-08-21T09:30:11;29.40;62.10
17887;DHT22;9069;52.044;7.472;2023-08-21T09:33:00;29.30;62.60
17887;DHT22;9069;52.044;7.472;2023-08-21T09:35:32;29.20;62.80
17887;DHT22;9069;52.044;7.472;2023-08-21T09:37:59;29.10;63.00
17887;DHT22;9069;52.044;7.472;2023-08-21T09:40:27;29.00;63.20
17887;DHT22;9069;52.044;7.472;2023-08-21T09:42:56;29.00;63.60
17887;DHT22;9069;52.044;7.472;2023-08-21T09:45:23;28.90;63.40
17887;DHT22;9069;52.044;7.472;2023-08-21T09:47:53;28.90;63.60
17887;DHT22;9069;52.044;7.472;2023-08-21T09:50:21;29.00;63.40
17887;DHT22;9069;52.044;7.472;2023-08-21T09:52:49;29.00;63.30
17887;DHT22;9069;52.044;7.472;2023-08-21T09:55:17;29.10;64.00
17887;DHT22;9069;52.044;7.472;2023-08-21T09:57:45;29.10;63.90
17887;DHT22;9069;52.044;7.472;2023-08-21T10:00:14;29.10;63.80
17887;DHT22;9069;52.044;7.472;2023-08-21T10:02:50;29.30;63.90
17887;DHT22;9069;52.044;7.472;2023-08-21T10:05:18;29.30;63.40
17887;DHT22;9069;52.044;7.472;2023-08-21T10:07:49;29.40;63.90
17887;DHT22;9069;52.044;7.472;2023-08-21T10:10:17;29.50;63.10
17887;DHT22;9069;52.044;7.472;2023-08-21T10:12:44;29.70;63.50
17887;DHT22;9069;52.044;7.472;2023-08-21T10:15:11;29.70;63.60
17887;DHT22;9069;52.044;7.472;2023-08-21T10:17:38;29.80;63.30
17887;DHT22;9069;52.044;7.472;2023-08-21T10:20:06;29.90;63.70
17887;DHT22;9069;52.044;7.472;2023-08-21T10:22:53;30.10;64.60
17887;DHT22;9069;52.044;7.472;2023-08-21T10:25:24;30.40;62.20
17887;DHT22;9069;52.044;7.472;2023-08-21T10:27:58;30.60;62.70
17887;DHT22;9069;52.044;7.472;2023-08-21T10:30:27;30.80;62.60
17887;DHT22;9069;52.044;7.472;2023-08-21T10:32:59;30.90;61.40
17887;DHT22;9069;52.044;7.472;2023-08-21T10:35:31;31.00;61.10
17887;DHT22;9069;52.044;7.472;2023-08-21T10:38:14;31.10;60.70
17887;DHT22;9069;52.044;7.472;2023-08-21T10:41:03;31.20;60.10
17887;DHT22;9069;52.044;7.472;2023-08-21T10:46:07;31.60;59.70
17887;DHT22;9069;52.044;7.472;2023-08-21T10:48:38;31.70;59.80
17887;DHT22;9069;52.044;7.472;2023-08-21T10:51:07;31.70;59.00
17887;DHT22;9069;52.044;7.472;2023-08-21T10:53:34;31.80;58.70
17887;DHT22;9069;52.044;7.472;2023-08-21T10:56:02;31.80;58.00
17887;DHT22;9069;52.044;7.472;2023-08-21T10:58:43;31.70;57.70
17887;DHT22;9069;52.044;7.472;2023-08-21T11:01:12;31.70;57.50
17887;DHT22;9069;52.044;7.472;2023-08-21T11:03:40;31.60;57.70
17887;DHT22;9069;52.044;7.472;2023-08-21T11:06:10;31.60;57.90
17887;DHT22;9069;52.044;7.472;2023-08-21T11:08:37;31.50;57.70
17887;DHT22;9069;52.044;7.472;2023-08-21T11:11:05;31.40;58.20
17887;DHT22;9069;52.044;7.472;2023-08-21T11:13:32;31.40;59.00
17887;DHT22;9069;52.044;7.472;2023-08-21T11:16:00;31.40;58.90
17887;DHT22;9069;52.044;7.472;2023-08-21T11:18:34;31.40;58.80
17887;DHT22;9069;52.044;7.472;2023-08-21T11:21:09;31.40;58.10
17887;DHT22;9069;52.044;7.472;2023-08-21T11:23:40;31.40;58.50
17887;DHT22;9069;52.044;7.472;2023-08-21T11:26:10;31.40;58.60
17887;DHT22;9069;52.044;7.472;2023-08-21T11:28:47;31.30;58.10
17887;DHT22;9069;52.044;7.472;2023-08-21T11:31:15;31.30;58.10
17887;DHT22;9069;52.044;7.472;2023-08-21T11:33:49;31.30;58.60
17887;DHT22;9069;52.044;7.472;2023-08-21T11:36:16;31.30;58.90
17887;DHT22;9069;52.044;7.472;2023-08-21T11:39:00;31.30;59.00
17887;DHT22;9069;52.044;7.472;2023-08-21T11:41:28;31.40;58.10
17887;DHT22;9069;52.044;7.472;2023-08-21T11:44:02;31.40;58.60
17887;DHT22;9069;52.044;7.472;2023-08-21T11:46:30;31.40;57.90
17887;DHT22;9069;52.044;7.472;2023-08-21T11:48:57;31.50;58.00
17887;DHT22;9069;52.044;7.472;2023-08-21T11:51:23;31.50;57.50
17887;DHT22;9069;52.044;7.472;2023-08-21T11:53:52;31.50;57.60
17887;DHT22;9069;52.044;7.472;2023-08-21T11:56:18;31.50;57.40
17887;DHT22;9069;52.044;7.472;2023-08-21T11:58:49;31.50;57.40
17887;DHT22;9069;52.044;7.472;2023-08-21T12:01:18;31.50;57.70
17887;DHT22;9069;52.044;7.472;2023-08-21T12:03:45;31.50;57.40
17887;DHT22;9069;52.044;7.472;2023-08-21T12:06:13;31.40;57.20
17887;DHT22;9069;52.044;7.472;2023-08-21T12:08:40;31.40;57.00
17887;DHT22;9069;52.044;7.472;2023-08-21T12:11:07;31.40;57.00
17887;DHT22;9069;52.044;7.472;2023-08-21T12:13:34;31.40;57.20
17887;DHT22;9069;52.044;7.472;2023-08-21T12:16:02;31.30;57.10
17887;DHT22;9069;52.044;7.472;2023-08-21T12:18:30;31.30;57.20
17887;DHT22;9069;52.044;7.472;2023-08-21T12:20:56;31.30;57.50
17887;DHT22;9069;52.044;7.472;2023-08-21T12:23:23;31.30;57.60
17887;DHT22;9069;52.044;7.472;2023-08-21T12:25:50;31.20;57.60
17887;DHT22;9069;52.044;7.472;2023-08-21T12:28:17;31.10;57.50
17887;DHT22;9069;52.044;7.472;2023-08-21T12:30:44;31.10;57.60
17887;DHT22;9069;52.044;7.472;2023-08-21T12:33:11;31.10;58.10
17887;DHT22;9069;52.044;7.472;2023-08-21T12:35:49;31.00;58.10
17887;DHT22;9069;52.044;7.472;2023-08-21T12:38:16;31.00;58.40
17887;DHT22;9069;52.044;7.472;2023-08-21T12:40:43;30.90;58.70
17887;DHT22;9069;52.044;7.472;2023-08-21T12:43:09;30.90;58.60
17887;DHT22;9069;52.044;7.472;2023-08-21T12:45:36;31.00;58.40
17887;DHT22;9069;52.044;7.472;2023-08-21T12:48:04;31.00;58.40
17887;DHT22;9069;52.044;7.472;2023-08-21T12:50:31;30.90;58.60
17887;DHT22;9069;52.044;7.472;2023-08-21T12:52:58;30.90;58.60
17887;DHT22;9069;52.044;7.472;2023-08-21T12:55:25;30.90;58.10
17887;DHT22;9069;52.044;7.472;2023-08-21T12:57:51;30.90;58.20
17887;DHT22;9069;52.044;7.472;2023-08-21T13:00:18;30.90;58.10
17887;DHT22;9069;52.044;7.472;2023-08-21T13:02:45;30.90;58.00
17887;DHT22;9069;52.044;7.472;2023-08-21T13:05:12;30.90;58.20
17887;DHT22;9069;52.044;7.472;2023-08-21T13:07:38;30.80;57.90
17887;DHT22;9069;52.044;7.472;2023-08-21T13:10:06;30.80;58.00
17887;DHT22;9069;52.044;7.472;2023-08-21T13:12:33;30.80;57.90
17887;DHT22;9069;52.044;7.472;2023-08-21T13:15:00;30.80;57.50
17887;DHT22;9069;52.044;7.472;2023-08-21T13:17:29;30.70;57.30
17887;DHT22;9069;52.044;7.472;2023-08-21T13:19:55;30.80;57.80
17887;DHT22;9069;52.044;7.472;2023-08-21T13:22:22;30.70;58.20
17887;DHT22;9069;52.044;7.472;2023-08-21T13:24:49;30.70;58.30
17887;DHT22;9069;52.044;7.472;2023-08-21T13:27:16;30.70;58.00
17887;DHT22;9069;52.044;7.472;2023-08-21T13:29:42;30.70;57.60
17887;DHT22;9069;52.044;7.472;2023-08-21T13:32:09;30.80;56.90
17887;DHT22;9069;52.044;7.472;2023-08-21T13:34:37;30.80;57.40
17887;DHT22;9069;52.044;7.472;2023-08-21T13:37:04;30.80;57.40
17887;DHT22;9069;52.044;7.472;2023-08-21T13:39:30;30.70;57.40
17887;DHT22;9069;52.044;7.472;2023-08-21T13:41:57;30.70;57.00
17887;DHT22;9069;52.044;7.472;2023-08-21T13:44:24;30.80;57.40
17887;DHT22;9069;52.044;7.472;2023-08-21T13:46:51;30.80;57.10
17887;DHT22;9069;52.044;7.472;2023-08-21T13:49:17;30.80;56.70
17887;DHT22;9069;52.044;7.472;2023-08-21T13:51:44;30.70;56.40
17887;DHT22;9069;52.044;7.472;2023-08-21T13:54:11;30.70;56.50
17887;DHT22;9069;52.044;7.472;2023-08-21T13:56:38;30.60;56.40
17887;DHT22;9069;52.044;7.472;2023-08-21T13:59:04;30.60;56.60
17887;DHT22;9069;52.044;7.472;2023-08-21T14:01:31;30.50;56.50
17887;DHT22;9069;52.044;7.472;2023-08-21T14:03:58;30.50;57.00
17887;DHT22;9069;52.044;7.472;2023-08-21T14:06:26;30.50;56.70
17887;DHT22;9069;52.044;7.472;2023-08-21T14:08:53;30.50;56.70
17887;DHT22;9069;52.044;7.472;2023-08-21T14:11:20;30.40;56.70
17887;DHT22;9069;52.044;7.472;2023-08-21T14:13:47;30.40;56.80
17887;DHT22;9069;52.044;7.472;2023-08-21T14:16:14;30.30;56.60
17887;DHT22;9069;52.044;7.472;2023-08-21T14:18:41;30.30;56.90
17887;DHT22;9069;52.044;7.472;2023-08-21T14:21:07;30.20;57.30
17887;DHT22;9069;52.044;7.472;2023-08-21T14:23:34;30.20;57.80
17887;DHT22;9069;52.044;7.472;2023-08-21T14:26:01;30.10;57.80
17887;DHT22;9069;52.044;7.472;2023-08-21T14:28:28;30.10;58.10
17887;DHT22;9069;52.044;7.472;2023-08-21T14:30:55;30.10;59.00
17887;DHT22;9069;52.044;7.472;2023-08-21T14:33:22;30.10;58.60
17887;DHT22;9069;52.044;7.472;2023-08-21T14:35:49;30.20;58.60
17887;DHT22;9069;52.044;7.472;2023-08-21T14:38:16;30.10;58.80
17887;DHT22;9069;52.044;7.472;2023-08-21T14:40:42;30.10;58.80
17887;DHT22;9069;52.044;7.472;2023-08-21T14:43:09;30.20;58.90
17887;DHT22;9069;52.044;7.472;2023-08-21T14:45:36;30.20;58.80
17887;DHT22;9069;52.044;7.472;2023-08-21T14:48:03;30.20;58.60
17887;DHT22;9069;52.044;7.472;2023-08-21T14:50:30;30.20;58.40
17887;DHT22;9069;52.044;7.472;2023-08-21T14:52:57;30.20;58.20
17887;DHT22;9069;52.044;7.472;2023-08-21T14:55:24;30.30;58.00
17887;DHT22;9069;52.044;7.472;2023-08-21T14:57:50;30.20;58.60
17887;DHT22;9069;52.044;7.472;2023-08-21T15:00:17;30.30;58.10
17887;DHT22;9069;52.044;7.472;2023-08-21T15:02:44;30.30;57.80
17887;DHT22;9069;52.044;7.472;2023-08-21T15:05:11;30.30;58.10
17887;DHT22;9069;52.044;7.472;2023-08-21T15:07:41;30.30;58.00
17887;DHT22;9069;52.044;7.472;2023-08-21T15:10:10;30.20;57.80
17887;DHT22;9069;52.044;7.472;2023-08-21T15:12:36;30.20;57.70
17887;DHT22;9069;52.044;7.472;2023-08-21T15:15:04;30.20;57.80
17887;DHT22;9069;52.044;7.472;2023-08-21T15:17:31;30.20;57.50
17887;DHT22;9069;52.044;7.472;2023-08-21T15:19:58;30.20;57.50
17887;DHT22;9069;52.044;7.472;2023-08-21T15:22:25;30.10;57.60
17887;DHT22;9069;52.044;7.472;2023-08-21T15:24:52;30.10;57.70
17887;DHT22;9069;52.044;7.472;2023-08-21T15:27:18;30.00;58.00
17887;DHT22;9069;52.044;7.472;2023-08-21T15:29:45;30.00;58.00
17887;DHT22;9069;52.044;7.472;2023-08-21T15:32:12;29.90;57.40
17887;DHT22;9069;52.044;7.472;2023-08-21T15:34:39;29.90;57.90
17887;DHT22;9069;52.044;7.472;2023-08-21T15:37:05;29.80;57.80
17887;DHT22;9069;52.044;7.472;2023-08-21T15:39:32;29.80;58.20
17887;DHT22;9069;52.044;7.472;2023-08-21T15:44:26;29.70;58.00
17887;DHT22;9069;52.044;7.472;2023-08-21T15:46:53;29.70;58.40
17887;DHT22;9069;52.044;7.472;2023-08-21T15:49:40;29.60;58.60
17887;DHT22;9069;52.044;7.472;2023-08-21T15:52:06;29.60;58.10
17887;DHT22;9069;52.044;7.472;2023-08-21T15:54:34;29.60;58.60
17887;DHT22;9069;52.044;7.472;2023-08-21T15:57:01;29.50;58.60